sensor_id;sensor_type;location;lat;lon;timestamp;temperature;humidity
11615;DHT22;5863;52.832;4.758;2024-02-26T00:00:09;6.30;99.90
11615;DHT22;5863;52.832;4.758;2024-02-26T00:02:36;6.30;99.90
11615;DHT22;5863;52.832;4.758;2024-02-26T00:05:05;6.30;99.90
11615;DHT22;5863;52.832;4.758;2024-02-26T00:07:32;6.30;99.90
11615;DHT22;5863;52.832;4.758;2024-02-26T00:09:58;6.30;99.90
11615;DHT22;5863;52.832;4.758;2024-02-26T00:12:25;6.30;99.90
11615;DHT22;5863;52.832;4.758;2024-02-26T00:14:52;6.30;99.90
11615;DHT22;5863;52.832;4.758;2024-02-26T00:17:21;6.20;99.90
11615;DHT22;5863;52.832;4.758;2024-02-26T00:19:47;6.20;99.90
11615;DHT22;5863;52.832;4.758;2024-02-26T00:22:14;6.20;99.90
11615;DHT22;5863;52.832;4.758;2024-02-26T00:24:41;6.10;99.90
11615;DHT22;5863;52.832;4.758;2024-02-26T00:27:08;6.20;99.90
11615;DHT22;5863;52.832;4.758;2024-02-26T00:29:35;6.20;99.90
11615;DHT22;5863;52.832;4.758;2024-02-26T00:32:01;6.20;99.90
11615;DHT22;5863;52.832;4.758;2024-02-26T00:34:31;6.20;99.90
11615;DHT22;5863;52.832;4.758;2024-02-26T00:36:57;6.20;99.90
11615;DHT22;5863;52.832;4.758;2024-02-26T00:39:24;6.20;99.90
11615;DHT22;5863;52.832;4.758;2024-02-26T00:41:51;6.20;99.90
11615;DHT22;5863;52.832;4.758;2024-02-26T00:44:18;6.10;99.90
11615;DHT22;5863;52.832;4.758;2024-02-26T00:46:45;6.20;99.90
11615;DHT22;5863;52.832;4.758;2024-02-26T00:49:12;6.10;99.90
11615;DHT22;5863;52.832;4.758;2024-02-26T00:51:40;6.10;99.90
11615;DHT22;5863;52.832;4.758;2024-02-26T00:54:07;6.10;99.90
11615;DHT22;5863;52.832;4.758;2024-02-26T00:56:34;6.10;99.90
11615;DHT22;5863;52.832;4.758;2024-02-26T00:59:00;6.00;99.90
11615;DHT22;5863;52.832;4.758;2024-02-26T01:01:27;6.10;99.90
11615;DHT22;5863;52.832;4.758;2024-02-26T01:03:54;6.00;99.90
11615;DHT22;5863;52.832;4.758;2024-02-26T01:06:21;6.00;99.90
11615;DHT22;5863;52.832;4.758;2024-02-26T01:08:50;6.00;99.90
11615;DHT22;5863;52.832;4.758;2024-02-26T01:11:16;6.00;99.90
11615;DHT22;5863;52.832;4.758;2024-02-26T01:13:43;6.00;99.90
11615;DHT22;5863;52.832;4.758;2024-02-26T01:16:10;6.00;99.90
11615;DHT22;5863;52.832;4.758;2024-02-26T01:18:37;6.00;99.90
11615;DHT22;5863;52.832;4.758;2024-02-26T01:21:04;5.90;99.90
11615;DHT22;5863;52.832;4.758;2024-02-26T01:23:32;6.00;99.90
11615;DHT22;5863;52.832;4.758;2024-02-26T01:26:00;5.90;99.90
11615;DHT22;5863;52.832;4.758;2024-02-26T01:28:28;5.90;99.90
11615;DHT22;5863;52.832;4.758;2024-02-26T01:30:55;5.90;99.90
11615;DHT22;5863;52.832;4.758;2024-02-26T01:33:22;5.90;99.90
11615;DHT22;5863;52.832;4.758;2024-02-26T01:35:49;5.90;99.90
11615;DHT22;5863;52.832;4.758;2024-02-26T01:38:16;5.80;99.90
11615;DHT22;5863;52.832;4.758;2024-02-26T01:40:43;5.80;99.90
11615;DHT22;5863;52.832;4.758;2024-02-26T01:43:11;5.80;99.90
11615;DHT22;5863;52.832;4.758;2024-02-26T01:45:38;5.80;99.90
11615;DHT22;5863;52.832;4.758;2024-02-26T01:48:05;5.80;99.90
11615;DHT22;5863;52.832;4.758;2024-02-26T01:50:33;5.70;99.90
11615;DHT22;5863;52.832;4.758;2024-02-26T01:53:03;5.80;99.90
11615;DHT22;5863;52.832;4.758;2024-02-26T01:55:31;5.80;99.90
11615;DHT22;5863;52.832;4.758;2024-02-26T01:57:58;5.80;99.90
11615;DHT22;5863;52.832;4.758;2024-02-26T02:00:27;5.90;99.90
11615;DHT22;5863;52.832;4.758;2024-02-26T02:02:54;5.80;99.90
11615;DHT22;5863;52.832;4.758;2024-02-26T02:05:23;5.80;99.90
11615;DHT22;5863;52.832;4.758;2024-02-26T02:07:50;5.80;99.90
11615;DHT22;5863;52.832;4.758;2024-02-26T02:10:18;5.80;99.90
11615;DHT22;5863;52.832;4.758;2024-02-26T02:12:48;5.80;99.90
11615;DHT22;5863;52.832;4.758;2024-02-26T02:15:15;5.80;99.90
11615;DHT22;5863;52.832;4.758;2024-02-26T02:17:43;5.90;99.90
11615;DHT22;5863;52.832;4.758;2024-02-26T02:20:15;5.80;99.90
11615;DHT22;5863;52.832;4.758;2024-02-26T02:22:44;5.90;99.90
11615;DHT22;5863;52.832;4.758;2024-02-26T02:25:11;5.90;99.90
11615;DHT22;5863;52.832;4.758;2024-02-26T02:27:39;5.90;99.90
11615;DHT22;5863;52.832;4.758;2024-02-26T02:30:07;5.90;99.90
11615;DHT22;5863;52.832;4.758;2024-02-26T02:32:34;5.80;99.90
11615;DHT22;5863;52.832;4.758;2024-02-26T02:35:02;5.80;99.90
11615;DHT22;5863;52.832;4.758;2024-02-26T02:37:29;5.80;99.90
11615;DHT22;5863;52.832;4.758;2024-02-26T02:39:57;5.80;99.90
11615;DHT22;5863;52.832;4.758;2024-02-26T02:42:24;5.90;99.90
11615;DHT22;5863;52.832;4.758;2024-02-26T02:44:51;5.90;99.90
11615;DHT22;5863;52.832;4.758;2024-02-26T02:47:18;5.80;99.90
11615;DHT22;5863;52.832;4.758;2024-02-26T02:49:44;5.80;99.90
11615;DHT22;5863;52.832;4.758;2024-02-26T02:52:11;5.80;99.90
11615;DHT22;5863;52.832;4.758;2024-02-26T02:54:37;5.80;99.90
11615;DHT22;5863;52.832;4.758;2024-02-26T02:57:08;5.80;99.90
11615;DHT22;5863;52.832;4.758;2024-02-26T02:59:35;5.80;99.90
11615;DHT22;5863;52.832;4.758;2024-02-26T03:02:02;5.80;99.90
11615;DHT22;5863;52.832;4.758;2024-02-26T03:04:30;5.80;99.90
11615;DHT22;5863;52.832;4.758;2024-02-26T03:06:57;5.80;99.90
11615;DHT22;5863;52.832;4.758;2024-02-26T03:09:24;5.80;99.90
11615;DHT22;5863;52.832;4.758;2024-02-26T03:11:51;5.80;99.90
11615;DHT22;5863;52.832;4.758;2024-02-26T03:14:19;5.80;99.90
11615;DHT22;5863;52.832;4.758;2024-02-26T03:16:46;5.80;99.90
11615;DHT22;5863;52.832;4.758;2024-02-26T03:19:14;5.70;99.90
11615;DHT22;5863;52.832;4.758;2024-02-26T03:21:41;5.80;99.90
11615;DHT22;5863;52.832;4.758;2024-02-26T03:24:08;5.70;99.90
11615;DHT22;5863;52.832;4.758;2024-02-26T03:26:36;5.70;99.90
11615;DHT22;5863;52.832;4.758;2024-02-26T03:29:02;5.80;99.90
11615;DHT22;5863;52.832;4.758;2024-02-26T03:31:31;5.70;99.90
11615;DHT22;5863;52.832;4.758;2024-02-26T03:33:58;5.70;99.90
11615;DHT22;5863;52.832;4.758;2024-02-26T03:36:25;5.70;99.90
11615;DHT22;5863;52.832;4.758;2024-02-26T03:38:52;5.70;99.90
11615;DHT22;5863;52.832;4.758;2024-02-26T03:41:19;5.70;99.90
11615;DHT22;5863;52.832;4.758;2024-02-26T03:43:46;5.70;99.90
11615;DHT22;5863;52.832;4.758;2024-02-26T03:46:13;5.70;99.90
11615;DHT22;5863;52.832;4.758;2024-02-26T03:48:41;5.70;99.90
11615;DHT22;5863;52.832;4.758;2024-02-26T03:51:08;5.70;99.90
11615;DHT22;5863;52.832;4.758;2024-02-26T03:53:35;5.60;99.90
11615;DHT22;5863;52.832;4.758;2024-02-26T03:56:04;5.60;99.90
11615;DHT22;5863;52.832;4.758;2024-02-26T03:58:30;5.70;99.90
11615;DHT22;5863;52.832;4.758;2024-02-26T04:00:58;5.60;99.90
11615;DHT22;5863;52.832;4.758;2024-02-26T04:03:25;5.70;99.90
11615;DHT22;5863;52.832;4.758;2024-02-26T04:05:53;5.70;99.90
11615;DHT22;5863;52.832;4.758;2024-02-26T04:08:20;5.70;99.90
11615;DHT22;5863;52.832;4.758;2024-02-26T04:10:48;5.60;99.90
11615;DHT22;5863;52.832;4.758;2024-02-26T04:13:14;5.60;99.90
11615;DHT22;5863;52.832;4.758;2024-02-26T04:15:41;5.70;99.90
11615;DHT22;5863;52.832;4.758;2024-02-26T04:18:08;5.70;99.90
11615;DHT22;5863;52.832;4.758;2024-02-26T04:20:35;5.70;99.90
11615;DHT22;5863;52.832;4.758;2024-02-26T04:23:04;5.60;99.90
11615;DHT22;5863;52.832;4.758;2024-02-26T04:25:31;5.70;99.90
11615;DHT22;5863;52.832;4.758;2024-02-26T04:27:58;5.70;99.90
11615;DHT22;5863;52.832;4.758;2024-02-26T04:30:25;5.60;99.90
11615;DHT22;5863;52.832;4.758;2024-02-26T04:32:52;5.70;99.90
11615;DHT22;5863;52.832;4.758;2024-02-26T04:35:19;5.60;99.90
11615;DHT22;5863;52.832;4.758;2024-02-26T04:37:45;5.60;99.90
11615;DHT22;5863;52.832;4.758;2024-02-26T04:40:14;5.60;99.90
11615;DHT22;5863;52.832;4.758;2024-02-26T04:42:41;5.70;99.90
11615;DHT22;5863;52.832;4.758;2024-02-26T04:45:08;5.70;99.90
11615;DHT22;5863;52.832;4.758;2024-02-26T04:47:36;5.60;99.90
11615;DHT22;5863;52.832;4.758;2024-02-26T04:50:03;5.70;99.90
11615;DHT22;5863;52.832;4.758;2024-02-26T04:52:30;5.70;99.90
11615;DHT22;5863;52.832;4.758;2024-02-26T04:54:57;5.70;99.90
11615;DHT22;5863;52.832;4.758;2024-02-26T04:57:26;5.70;99.90
11615;DHT22;5863;52.832;4.758;2024-02-26T04:59:53;5.70;99.90
11615;DHT22;5863;52.832;4.758;2024-02-26T05:02:20;5.70;99.90
11615;DHT22;5863;52.832;4.758;2024-02-26T05:04:47;5.70;99.90
11615;DHT22;5863;52.832;4.758;2024-02-26T05:07:14;5.70;99.90
11615;DHT22;5863;52.832;4.758;2024-02-26T05:09:43;5.70;99.90
11615;DHT22;5863;52.832;4.758;2024-02-26T05:12:10;5.70;99.90
11615;DHT22;5863;52.832;4.758;2024-02-26T05:14:39;5.70;99.90
11615;DHT22;5863;52.832;4.758;2024-02-26T05:17:06;5.80;99.90
11615;DHT22;5863;52.832;4.758;2024-02-26T05:19:33;5.80;99.90
11615;DHT22;5863;52.832;4.758;2024-02-26T05:22:00;5.80;99.90
11615;DHT22;5863;52.832;4.758;2024-02-26T05:24:27;5.80;99.90
11615;DHT22;5863;52.832;4.758;2024-02-26T05:26:54;5.80;99.90
11615;DHT22;5863;52.832;4.758;2024-02-26T05:29:21;5.80;99.90
11615;DHT22;5863;52.832;4.758;2024-02-26T05:31:49;5.70;99.90
11615;DHT22;5863;52.832;4.758;2024-02-26T05:34:16;5.70;99.90
11615;DHT22;5863;52.832;4.758;2024-02-26T05:36:43;5.70;99.90
11615;DHT22;5863;52.832;4.758;2024-02-26T05:39:10;5.80;99.90
11615;DHT22;5863;52.832;4.758;2024-02-26T05:41:37;5.80;99.90
11615;DHT22;5863;52.832;4.758;2024-02-26T05:44:04;5.80;99.90
11615;DHT22;5863;52.832;4.758;2024-02-26T05:46:31;5.80;99.90
11615;DHT22;5863;52.832;4.758;2024-02-26T05:48:59;5.80;99.90
11615;DHT22;5863;52.832;4.758;2024-02-26T05:51:26;5.80;99.90
11615;DHT22;5863;52.832;4.758;2024-02-26T05:53:53;5.80;99.90
11615;DHT22;5863;52.832;4.758;2024-02-26T05:56:20;6.00;99.90
11615;DHT22;5863;52.832;4.758;2024-02-26T05:58:47;5.80;99.90
11615;DHT22;5863;52.832;4.758;2024-02-26T06:01:15;5.90;99.90
11615;DHT22;5863;52.832;4.758;2024-02-26T06:03:42;5.90;99.90
11615;DHT22;5863;52.832;4.758;2024-02-26T06:06:11;5.90;99.90
11615;DHT22;5863;52.832;4.758;2024-02-26T06:08:38;5.80;99.90
11615;DHT22;5863;52.832;4.758;2024-02-26T06:11:06;5.90;99.90
11615;DHT22;5863;52.832;4.758;2024-02-26T06:13:33;5.90;99.90
11615;DHT22;5863;52.832;4.758;2024-02-26T06:16:00;5.90;99.90
11615;DHT22;5863;52.832;4.758;2024-02-26T06:18:27;5.90;99.90
11615;DHT22;5863;52.832;4.758;2024-02-26T06:20:54;5.90;99.90
11615;DHT22;5863;52.832;4.758;2024-02-26T06:23:23;6.00;99.90
11615;DHT22;5863;52.832;4.758;2024-02-26T06:25:50;6.00;99.90
11615;DHT22;5863;52.832;4.758;2024-02-26T06:28:17;6.00;99.90
11615;DHT22;5863;52.832;4.758;2024-02-26T06:30:43;6.00;99.90
11615;DHT22;5863;52.832;4.758;2024-02-26T06:33:11;5.90;99.90
11615;DHT22;5863;52.832;4.758;2024-02-26T06:35:39;6.00;99.90
11615;DHT22;5863;52.832;4.758;2024-02-26T06:38:06;6.00;99.90
11615;DHT22;5863;52.832;4.758;2024-02-26T06:40:35;6.00;99.90
11615;DHT22;5863;52.832;4.758;2024-02-26T06:43:01;6.00;99.90
11615;DHT22;5863;52.832;4.758;2024-02-26T06:45:28;6.00;99.90
11615;DHT22;5863;52.832;4.758;2024-02-26T06:47:55;6.00;99.90
11615;DHT22;5863;52.832;4.758;2024-02-26T06:50:22;6.00;99.90
11615;DHT22;5863;52.832;4.758;2024-02-26T06:52:49;6.00;99.90
11615;DHT22;5863;52.832;4.758;2024-02-26T06:55:16;6.00;99.90
11615;DHT22;5863;52.832;4.758;2024-02-26T06:57:44;6.00;99.90
11615;DHT22;5863;52.832;4.758;2024-02-26T07:00:12;6.00;99.90
11615;DHT22;5863;52.832;4.758;2024-02-26T07:02:41;6.00;99.90
11615;DHT22;5863;52.832;4.758;2024-02-26T07:05:08;6.00;99.90
11615;DHT22;5863;52.832;4.758;2024-02-26T07:07:35;6.00;99.90
11615;DHT22;5863;52.832;4.758;2024-02-26T07:10:02;6.00;99.90
11615;DHT22;5863;52.832;4.758;2024-02-26T07:12:31;6.00;99.90
11615;DHT22;5863;52.832;4.758;2024-02-26T07:14:59;6.00;99.90
11615;DHT22;5863;52.832;4.758;2024-02-26T07:17:26;6.00;99.90
11615;DHT22;5863;52.832;4.758;2024-02-26T07:19:53;6.00;99.90
11615;DHT22;5863;52.832;4.758;2024-02-26T07:22:20;6.00;99.90
11615;DHT22;5863;52.832;4.758;2024-02-26T07:24:47;6.00;99.90
11615;DHT22;5863;52.832;4.758;2024-02-26T07:27:13;6.00;99.90
11615;DHT22;5863;52.832;4.758;2024-02-26T07:29:43;6.00;99.90
11615;DHT22;5863;52.832;4.758;2024-02-26T07:32:11;6.00;99.90
11615;DHT22;5863;52.832;4.758;2024-02-26T07:34:38;6.00;99.90
11615;DHT22;5863;52.832;4.758;2024-02-26T07:37:07;6.10;99.90
11615;DHT22;5863;52.832;4.758;2024-02-26T07:39:34;6.00;99.90
11615;DHT22;5863;52.832;4.758;2024-02-26T07:42:02;6.00;99.90
11615;DHT22;5863;52.832;4.758;2024-02-26T07:44:29;6.10;99.90
11615;DHT22;5863;52.832;4.758;2024-02-26T07:46:56;6.00;99.90
11615;DHT22;5863;52.832;4.758;2024-02-26T07:49:24;6.10;99.90
11615;DHT22;5863;52.832;4.758;2024-02-26T07:51:51;6.00;99.90
11615;DHT22;5863;52.832;4.758;2024-02-26T07:54:18;6.10;99.90
11615;DHT22;5863;52.832;4.758;2024-02-26T07:56:45;6.00;99.90
11615;DHT22;5863;52.832;4.758;2024-02-26T07:59:12;6.00;99.90
11615;DHT22;5863;52.832;4.758;2024-02-26T08:01:39;6.10;99.90
11615;DHT22;5863;52.832;4.758;2024-02-26T08:04:07;6.10;99.90
11615;DHT22;5863;52.832;4.758;2024-02-26T08:06:35;6.10;99.90
11615;DHT22;5863;52.832;4.758;2024-02-26T08:09:02;6.10;99.90
11615;DHT22;5863;52.832;4.758;2024-02-26T08:11:30;6.10;99.90
11615;DHT22;5863;52.832;4.758;2024-02-26T08:13:56;6.10;99.90
11615;DHT22;5863;52.832;4.758;2024-02-26T08:16:24;6.10;99.90
11615;DHT22;5863;52.832;4.758;2024-02-26T08:18:51;6.10;99.90
11615;DHT22;5863;52.832;4.758;2024-02-26T08:21:18;6.10;99.90
11615;DHT22;5863;52.832;4.758;2024-02-26T08:23:46;6.10;99.90
11615;DHT22;5863;52.832;4.758;2024-02-26T08:26:13;6.10;99.90
11615;DHT22;5863;52.832;4.758;2024-02-26T08:28:40;6.10;99.90
11615;DHT22;5863;52.832;4.758;2024-02-26T08:31:07;6.10;99.90
11615;DHT22;5863;52.832;4.758;2024-02-26T08:33:34;6.10;99.90
11615;DHT22;5863;52.832;4.758;2024-02-26T08:36:04;6.10;99.90
11615;DHT22;5863;52.832;4.758;2024-02-26T08:38:31;6.10;99.90
11615;DHT22;5863;52.832;4.758;2024-02-26T08:41:01;6.20;99.90
11615;DHT22;5863;52.832;4.758;2024-02-26T08:43:29;6.20;99.90
11615;DHT22;5863;52.832;4.758;2024-02-26T08:45:56;6.30;99.90
11615;DHT22;5863;52.832;4.758;2024-02-26T08:48:23;6.30;99.90
11615;DHT22;5863;52.832;4.758;2024-02-26T08:50:50;6.30;99.90
11615;DHT22;5863;52.832;4.758;2024-02-26T08:53:17;6.30;99.90
11615;DHT22;5863;52.832;4.758;2024-02-26T08:55:44;6.30;99.90
11615;DHT22;5863;52.832;4.758;2024-02-26T08:58:12;6.20;99.90
11615;DHT22;5863;52.832;4.758;2024-02-26T09:00:39;6.30;99.90
11615;DHT22;5863;52.832;4.758;2024-02-26T09:03:06;6.30;99.90
11615;DHT22;5863;52.832;4.758;2024-02-26T09:05:33;6.30;99.90
11615;DHT22;5863;52.832;4.758;2024-02-26T09:08:00;6.30;99.90
11615;DHT22;5863;52.832;4.758;2024-02-26T09:10:27;6.30;99.90
11615;DHT22;5863;52.832;4.758;2024-02-26T09:12:54;6.30;99.90
11615;DHT22;5863;52.832;4.758;2024-02-26T09:15:23;6.30;99.90
11615;DHT22;5863;52.832;4.758;2024-02-26T09:17:49;6.30;99.90
11615;DHT22;5863;52.832;4.758;2024-02-26T09:20:17;6.40;99.90
11615;DHT22;5863;52.832;4.758;2024-02-26T09:22:45;6.40;99.90
11615;DHT22;5863;52.832;4.758;2024-02-26T09:25:12;6.40;99.90
11615;DHT22;5863;52.832;4.758;2024-02-26T09:27:41;6.40;99.90
11615;DHT22;5863;52.832;4.758;2024-02-26T09:30:08;6.50;99.90
11615;DHT22;5863;52.832;4.758;2024-02-26T09:32:37;6.50;99.90
11615;DHT22;5863;52.832;4.758;2024-02-26T09:35:04;6.60;99.90
11615;DHT22;5863;52.832;4.758;2024-02-26T09:37:31;6.60;99.90
11615;DHT22;5863;52.832;4.758;2024-02-26T09:39:59;6.60;99.90
11615;DHT22;5863;52.832;4.758;2024-02-26T09:42:26;6.70;99.90
11615;DHT22;5863;52.832;4.758;2024-02-26T09:44:54;6.70;99.90
11615;DHT22;5863;52.832;4.758;2024-02-26T09:47:23;6.70;99.90
11615;DHT22;5863;52.832;4.758;2024-02-26T09:49:52;6.80;99.90
11615;DHT22;5863;52.832;4.758;2024-02-26T09:52:20;6.80;99.90
11615;DHT22;5863;52.832;4.758;2024-02-26T09:54:47;6.90;99.90
11615;DHT22;5863;52.832;4.758;2024-02-26T09:57:15;6.90;99.90
11615;DHT22;5863;52.832;4.758;2024-02-26T09:59:44;6.80;99.90
11615;DHT22;5863;52.832;4.758;2024-02-26T10:02:13;6.90;99.90
11615;DHT22;5863;52.832;4.758;2024-02-26T10:04:40;6.90;99.90
11615;DHT22;5863;52.832;4.758;2024-02-26T10:07:10;7.00;99.90
11615;DHT22;5863;52.832;4.758;2024-02-26T10:09:37;7.00;99.90
11615;DHT22;5863;52.832;4.758;2024-02-26T10:12:05;7.10;99.90
11615;DHT22;5863;52.832;4.758;2024-02-26T10:14:33;7.10;99.90
11615;DHT22;5863;52.832;4.758;2024-02-26T10:17:00;7.10;99.90
11615;DHT22;5863;52.832;4.758;2024-02-26T10:19:29;7.10;99.90
11615;DHT22;5863;52.832;4.758;2024-02-26T10:21:59;7.10;99.90
11615;DHT22;5863;52.832;4.758;2024-02-26T10:24:29;7.20;99.90
11615;DHT22;5863;52.832;4.758;2024-02-26T10:26:57;7.20;99.90
11615;DHT22;5863;52.832;4.758;2024-02-26T10:29:24;7.20;99.90
11615;DHT22;5863;52.832;4.758;2024-02-26T10:31:52;7.20;99.90
11615;DHT22;5863;52.832;4.758;2024-02-26T10:34:21;7.30;99.90
11615;DHT22;5863;52.832;4.758;2024-02-26T10:36:49;7.30;99.90
11615;DHT22;5863;52.832;4.758;2024-02-26T10:39:16;7.20;99.90
11615;DHT22;5863;52.832;4.758;2024-02-26T10:41:45;7.20;99.90
11615;DHT22;5863;52.832;4.758;2024-02-26T10:44:12;7.20;99.90
11615;DHT22;5863;52.832;4.758;2024-02-26T10:46:40;7.30;99.90
11615;DHT22;5863;52.832;4.758;2024-02-26T10:49:14;7.30;99.90
11615;DHT22;5863;52.832;4.758;2024-02-26T10:51:44;7.30;99.90
11615;DHT22;5863;52.832;4.758;2024-02-26T10:54:15;7.30;99.90
11615;DHT22;5863;52.832;4.758;2024-02-26T10:56:44;7.40;99.90
11615;DHT22;5863;52.832;4.758;2024-02-26T10:59:13;7.40;99.90
11615;DHT22;5863;52.832;4.758;2024-02-26T11:01:41;7.50;99.90
11615;DHT22;5863;52.832;4.758;2024-02-26T11:04:12;7.50;99.90
11615;DHT22;5863;52.832;4.758;2024-02-26T11:06:40;7.50;99.90
11615;DHT22;5863;52.832;4.758;2024-02-26T11:09:08;7.40;99.90
11615;DHT22;5863;52.832;4.758;2024-02-26T11:11:38;7.50;99.90
11615;DHT22;5863;52.832;4.758;2024-02-26T11:14:08;7.60;99.90
11615;DHT22;5863;52.832;4.758;2024-02-26T11:16:38;7.60;99.90
11615;DHT22;5863;52.832;4.758;2024-02-26T11:19:06;7.70;99.90
11615;DHT22;5863;52.832;4.758;2024-02-26T11:21:35;7.80;99.90
11615;DHT22;5863;52.832;4.758;2024-02-26T11:24:08;7.80;99.90
11615;DHT22;5863;52.832;4.758;2024-02-26T11:26:39;7.80;99.90
11615;DHT22;5863;52.832;4.758;2024-02-26T11:29:11;7.70;99.90
11615;DHT22;5863;52.832;4.758;2024-02-26T11:31:39;7.70;99.90
11615;DHT22;5863;52.832;4.758;2024-02-26T11:34:08;7.80;99.90
11615;DHT22;5863;52.832;4.758;2024-02-26T11:36:36;7.80;99.90
11615;DHT22;5863;52.832;4.758;2024-02-26T11:39:04;7.80;99.90
11615;DHT22;5863;52.832;4.758;2024-02-26T11:41:32;7.80;99.90
11615;DHT22;5863;52.832;4.758;2024-02-26T11:44:00;7.80;99.90
11615;DHT22;5863;52.832;4.758;2024-02-26T11:46:30;7.80;99.90
11615;DHT22;5863;52.832;4.758;2024-02-26T11:48:59;7.60;99.90
11615;DHT22;5863;52.832;4.758;2024-02-26T11:51:27;7.60;99.90
11615;DHT22;5863;52.832;4.758;2024-02-26T11:53:54;7.60;99.90
11615;DHT22;5863;52.832;4.758;2024-02-26T11:56:24;7.60;99.90
11615;DHT22;5863;52.832;4.758;2024-02-26T11:58:59;7.60;99.90
11615;DHT22;5863;52.832;4.758;2024-02-26T12:01:44;7.70;99.90
11615;DHT22;5863;52.832;4.758;2024-02-26T12:04:15;7.60;99.90
11615;DHT22;5863;52.832;4.758;2024-02-26T12:06:47;7.60;99.90
11615;DHT22;5863;52.832;4.758;2024-02-26T12:09:35;7.60;99.90
11615;DHT22;5863;52.832;4.758;2024-02-26T12:12:04;7.60;99.90
11615;DHT22;5863;52.832;4.758;2024-02-26T12:14:34;7.60;99.90
11615;DHT22;5863;52.832;4.758;2024-02-26T12:17:03;7.60;99.90
11615;DHT22;5863;52.832;4.758;2024-02-26T12:19:33;7.60;99.90
11615;DHT22;5863;52.832;4.758;2024-02-26T12:22:01;7.60;99.90
11615;DHT22;5863;52.832;4.758;2024-02-26T12:24:27;7.60;99.90
11615;DHT22;5863;52.832;4.758;2024-02-26T12:26:54;7.60;99.90
11615;DHT22;5863;52.832;4.758;2024-02-26T12:29:21;7.70;99.90
11615;DHT22;5863;52.832;4.758;2024-02-26T12:31:48;7.70;99.90
11615;DHT22;5863;52.832;4.758;2024-02-26T12:34:16;7.80;99.90
11615;DHT22;5863;52.832;4.758;2024-02-26T12:36:43;7.70;99.90
11615;DHT22;5863;52.832;4.758;2024-02-26T12:39:11;7.70;99.90
11615;DHT22;5863;52.832;4.758;2024-02-26T12:41:38;7.60;99.90
11615;DHT22;5863;52.832;4.758;2024-02-26T12:44:05;7.60;99.90
11615;DHT22;5863;52.832;4.758;2024-02-26T12:46:34;7.60;99.90
11615;DHT22;5863;52.832;4.758;2024-02-26T12:49:01;7.60;99.90
11615;DHT22;5863;52.832;4.758;2024-02-26T12:51:29;7.70;99.90
11615;DHT22;5863;52.832;4.758;2024-02-26T12:53:56;7.70;99.90
11615;DHT22;5863;52.832;4.758;2024-02-26T12:56:26;7.70;99.90
11615;DHT22;5863;52.832;4.758;2024-02-26T12:58:56;7.80;99.90
11615;DHT22;5863;52.832;4.758;2024-02-26T13:01:24;7.80;99.90
11615;DHT22;5863;52.832;4.758;2024-02-26T13:03:52;7.80;99.90
11615;DHT22;5863;52.832;4.758;2024-02-26T13:06:20;7.80;99.90
11615;DHT22;5863;52.832;4.758;2024-02-26T13:08:49;7.80;99.90
11615;DHT22;5863;52.832;4.758;2024-02-26T13:11:16;7.70;99.90
11615;DHT22;5863;52.832;4.758;2024-02-26T13:13:47;7.80;99.90
11615;DHT22;5863;52.832;4.758;2024-02-26T13:16:15;7.80;99.90
11615;DHT22;5863;52.832;4.758;2024-02-26T13:18:42;7.80;99.90
11615;DHT22;5863;52.832;4.758;2024-02-26T13:21:11;7.80;99.90
11615;DHT22;5863;52.832;4.758;2024-02-26T13:23:38;7.80;99.90
11615;DHT22;5863;52.832;4.758;2024-02-26T13:26:07;7.80;99.90
11615;DHT22;5863;52.832;4.758;2024-02-26T13:28:34;7.80;99.90
11615;DHT22;5863;52.832;4.758;2024-02-26T13:31:02;7.80;99.90
11615;DHT22;5863;52.832;4.758;2024-02-26T13:33:30;7.80;99.90
11615;DHT22;5863;52.832;4.758;2024-02-26T13:35:58;7.80;99.90
11615;DHT22;5863;52.832;4.758;2024-02-26T13:38:25;7.70;99.90
11615;DHT22;5863;52.832;4.758;2024-02-26T13:40:53;7.80;99.90
11615;DHT22;5863;52.832;4.758;2024-02-26T13:43:21;7.70;99.90
11615;DHT22;5863;52.832;4.758;2024-02-26T13:45:48;7.70;99.90
11615;DHT22;5863;52.832;4.758;2024-02-26T13:48:15;7.80;99.90
11615;DHT22;5863;52.832;4.758;2024-02-26T13:50:42;7.70;99.90
11615;DHT22;5863;52.832;4.758;2024-02-26T13:53:11;7.70;99.90
11615;DHT22;5863;52.832;4.758;2024-02-26T13:55:38;7.60;99.90
11615;DHT22;5863;52.832;4.758;2024-02-26T13:58:08;7.70;99.90
11615;DHT22;5863;52.832;4.758;2024-02-26T14:00:36;7.60;99.90
11615;DHT22;5863;52.832;4.758;2024-02-26T14:03:03;7.60;99.90
11615;DHT22;5863;52.832;4.758;2024-02-26T14:05:31;7.60;99.90
11615;DHT22;5863;52.832;4.758;2024-02-26T14:07:58;7.60;99.90
11615;DHT22;5863;52.832;4.758;2024-02-26T14:10:25;7.50;99.90
11615;DHT22;5863;52.832;4.758;2024-02-26T14:12:51;7.40;99.90
11615;DHT22;5863;52.832;4.758;2024-02-26T14:15:18;7.50;99.90
11615;DHT22;5863;52.832;4.758;2024-02-26T14:17:46;7.60;99.90
11615;DHT22;5863;52.832;4.758;2024-02-26T14:20:19;7.50;99.90
11615;DHT22;5863;52.832;4.758;2024-02-26T14:22:46;7.50;99.90
11615;DHT22;5863;52.832;4.758;2024-02-26T14:25:13;7.50;99.90
11615;DHT22;5863;52.832;4.758;2024-02-26T14:27:40;7.50;99.90
11615;DHT22;5863;52.832;4.758;2024-02-26T14:30:07;7.40;99.90
11615;DHT22;5863;52.832;4.758;2024-02-26T14:32:34;7.50;99.90
11615;DHT22;5863;52.832;4.758;2024-02-26T14:35:05;7.40;99.90
11615;DHT22;5863;52.832;4.758;2024-02-26T14:37:33;7.40;99.90
11615;DHT22;5863;52.832;4.758;2024-02-26T14:40:00;7.30;99.90
11615;DHT22;5863;52.832;4.758;2024-02-26T14:42:28;7.30;99.90
11615;DHT22;5863;52.832;4.758;2024-02-26T14:44:56;7.30;99.90
11615;DHT22;5863;52.832;4.758;2024-02-26T14:47:23;7.30;99.90
11615;DHT22;5863;52.832;4.758;2024-02-26T14:49:50;7.30;99.90
11615;DHT22;5863;52.832;4.758;2024-02-26T14:52:18;7.30;99.90
11615;DHT22;5863;52.832;4.758;2024-02-26T14:54:45;7.40;99.90
11615;DHT22;5863;52.832;4.758;2024-02-26T14:57:12;7.40;99.90
11615;DHT22;5863;52.832;4.758;2024-02-26T14:59:39;7.40;99.90
11615;DHT22;5863;52.832;4.758;2024-02-26T15:02:07;7.30;99.90
11615;DHT22;5863;52.832;4.758;2024-02-26T15:04:35;7.30;99.90
11615;DHT22;5863;52.832;4.758;2024-02-26T15:07:02;7.20;99.90
11615;DHT22;5863;52.832;4.758;2024-02-26T15:09:31;7.30;99.90
11615;DHT22;5863;52.832;4.758;2024-02-26T15:11:57;7.20;99.90
11615;DHT22;5863;52.832;4.758;2024-02-26T15:14:24;7.20;99.90
11615;DHT22;5863;52.832;4.758;2024-02-26T15:16:52;7.20;99.90
11615;DHT22;5863;52.832;4.758;2024-02-26T15:19:19;7.20;99.90
11615;DHT22;5863;52.832;4.758;2024-02-26T15:21:46;7.20;99.90
11615;DHT22;5863;52.832;4.758;2024-02-26T15:24:13;7.20;99.90
11615;DHT22;5863;52.832;4.758;2024-02-26T15:26:43;7.20;99.90
11615;DHT22;5863;52.832;4.758;2024-02-26T15:29:10;7.30;99.90
11615;DHT22;5863;52.832;4.758;2024-02-26T15:31:37;7.30;99.90
11615;DHT22;5863;52.832;4.758;2024-02-26T15:34:04;7.20;99.90
11615;DHT22;5863;52.832;4.758;2024-02-26T15:36:31;7.20;99.90
11615;DHT22;5863;52.832;4.758;2024-02-26T15:38:57;7.20;99.90
11615;DHT22;5863;52.832;4.758;2024-02-26T15:41:24;7.20;99.90
11615;DHT22;5863;52.832;4.758;2024-02-26T15:43:53;7.20;99.90
11615;DHT22;5863;52.832;4.758;2024-02-26T15:46:19;7.30;99.90
11615;DHT22;5863;52.832;4.758;2024-02-26T15:48:46;7.20;99.90
11615;DHT22;5863;52.832;4.758;2024-02-26T15:51:20;7.20;99.90
11615;DHT22;5863;52.832;4.758;2024-02-26T15:53:47;7.30;99.90
11615;DHT22;5863;52.832;4.758;2024-02-26T15:56:15;7.30;99.90
11615;DHT22;5863;52.832;4.758;2024-02-26T15:58:42;7.30;99.90
11615;DHT22;5863;52.832;4.758;2024-02-26T16:01:10;7.20;99.90
11615;DHT22;5863;52.832;4.758;2024-02-26T16:03:38;7.20;99.90